FAAM weather

Amsterdam Airport
Amsterdam, Mpumalanga, South Africa

Public forecast

Using degrees Celsius for public forecast. Weather courtesy of forecast.io.

METAR (pilot weather report)

Closest report is Ermelo Airport, 34.3 nm (63.6 km) WNW. Retrieved 2019/09/21 08:42 UTC (0 seconds ago):

FAEO 210842Z 33007KT CAVOK 27/M01 Q1026

TAF (pilot weather forecast)

Forecast is more than 12 hours old.

Closest forecast is Ermelo Airport, 34.3 nm (63.6 km) WNW. Retrieved 2017/06/05 04:55 UTC (2 years ago):

TAF FAEO 050300Z 0504/0515 09006KT CAVOK TX18/0513ZTN05/0504Z